Terminal Aerodrome Forecast
Issued by NWS

Home | Current Version | Previous Version | Text Only | Print | Product List | Glossary On
Versions: 1 2 3 4 5 6 7 8 9 10 11 12 13 14 15 16 17 18 19 20 21
006
FTUS43 KGRR 201328 AAA
TAFBTL
TAF AMD
KBTL 201328Z 2013/2112 05006KT 4SM -RA BR BKN020 OVC030
     FM201400 09004KT 1 1/2SM -RA BR OVC007
     FM201600 20003KT 1/2SM FG VV002
     FM202100 21003KT 4SM BR OVC007
     FM210400 18005KT 1/4SM FG VV002=

USA.gov is the U.S. government's official web portal to all federal, state and local government web resources and services.